createdAt,value
2018-09-26T00:02:31.906Z,102941.66
2018-09-26T00:05:01.522Z,102941.08
2018-09-26T00:07:31.632Z,102942.77
2018-09-26T00:10:01.240Z,102944.81
2018-09-26T00:12:31.471Z,102950.77
2018-09-26T00:15:01.276Z,102948.41
2018-09-26T00:17:30.523Z,102941.43
2018-09-26T00:20:00.434Z,102942.05
2018-09-26T00:22:29.950Z,102941.63
2018-09-26T00:24:59.463Z,102944.16
2018-09-26T00:27:28.944Z,102946.02
2018-09-26T00:29:58.542Z,102949.42
2018-09-26T00:32:29.024Z,102950.88
2018-09-26T00:34:59.120Z,102939.84
2018-09-26T00:37:28.609Z,102939.59
2018-09-26T00:39:58.136Z,102937.55
2018-09-26T00:42:27.665Z,102929.51
2018-09-26T00:44:57.203Z,102926.72
2018-09-26T00:47:27.380Z,102921.34
2018-09-26T00:49:56.982Z,102918.42
2018-09-26T00:52:26.564Z,102915.93
2018-09-26T00:54:56.849Z,102924.67
2018-09-26T00:57:26.550Z,102928.47
2018-09-26T00:59:56.215Z,102934.95
2018-09-26T01:02:25.753Z,102933.08
2018-09-26T01:04:55.195Z,102930.77
2018-09-26T01:07:24.778Z,102925.09
2018-09-26T01:09:54.443Z,102925.28
2018-09-26T01:12:23.696Z,102927.25
2018-09-26T01:14:53.219Z,102915.90
2018-09-26T01:17:22.959Z,102912.23
2018-09-26T01:19:52.643Z,102907.59
2018-09-26T01:22:22.378Z,102910.23
2018-09-26T01:24:51.676Z,102904.67
2018-09-26T01:27:21.640Z,102898.28
2018-09-26T01:29:51.298Z,102888.27
2018-09-26T01:32:21.174Z,102885.89
2018-09-26T01:34:52.259Z,102854.92
2018-09-26T01:37:23.252Z,102881.89
2018-09-26T01:39:53.754Z,102868.02
2018-09-26T01:42:23.934Z,102859.91
2018-09-26T01:44:54.093Z,102864.26
2018-09-26T01:47:24.163Z,102854.58
2018-09-26T01:49:54.037Z,102851.66
2018-09-26T01:52:24.637Z,102846.41
2018-09-26T01:54:54.334Z,102839.26
2018-09-26T01:57:24.359Z,102829.10
2018-09-26T01:59:54.331Z,102826.52
2018-09-26T02:02:24.551Z,102828.62
2018-09-26T02:04:54.203Z,102826.03
2018-09-26T02:07:24.007Z,102832.67
2018-09-26T02:09:53.830Z,102835.80
2018-09-26T02:12:23.373Z,102838.82
2018-09-26T02:14:53.515Z,102844.48
2018-09-26T02:17:22.930Z,102845.47
2018-09-26T02:19:52.874Z,102845.25
2018-09-26T02:22:22.736Z,102851.09
2018-09-26T02:24:52.294Z,102861.77
2018-09-26T02:27:21.978Z,102864.42
2018-09-26T02:29:51.706Z,102863.55
2018-09-26T02:32:21.911Z,102868.72
2018-09-26T02:34:52.046Z,102868.33
2018-09-26T02:37:21.421Z,102868.06
2018-09-26T02:39:51.592Z,102877.73
2018-09-26T02:42:21.582Z,102879.17
2018-09-26T02:44:51.813Z,102883.72
2018-09-26T02:47:21.283Z,102885.36
2018-09-26T02:49:50.505Z,102881.30
2018-09-26T02:52:20.286Z,102869.06
2018-09-26T02:54:50.026Z,102859.09
2018-09-26T02:57:20.140Z,102860.64
2018-09-26T02:59:49.647Z,102861.04
2018-09-26T03:02:19.415Z,102860.02
2018-09-26T03:04:48.868Z,102853.09
2018-09-26T03:07:18.440Z,102853.27
2018-09-26T03:09:47.908Z,102856.81
2018-09-26T03:12:17.412Z,102856.64
2018-09-26T03:14:47.081Z,102865.47
2018-09-26T03:17:16.613Z,102863.41
2018-09-26T03:19:46.118Z,102860.94
2018-09-26T03:22:16.038Z,102858.31
2018-09-26T03:24:45.505Z,102856.69
2018-09-26T03:27:15.283Z,102838.84
2018-09-26T03:29:45.217Z,102826.95
2018-09-26T03:32:15.122Z,102830.54
2018-09-26T03:34:44.807Z,102837.77
2018-09-26T03:37:14.470Z,102839.23
2018-09-26T03:39:44.965Z,102848.39
2018-09-26T03:42:14.322Z,102838.78
2018-09-26T03:44:43.526Z,102846.63
2018-09-26T03:47:12.794Z,102860.95
2018-09-26T03:49:42.407Z,102859.28
2018-09-26T03:52:12.138Z,102852.92
2018-09-26T03:54:42.081Z,102857.44
2018-09-26T03:57:11.895Z,102855.16
2018-09-26T03:59:41.235Z,102849.14
2018-09-26T04:02:10.818Z,102856.69
2018-09-26T04:04:40.759Z,102859.05
2018-09-26T04:07:10.674Z,102855.11
2018-09-26T04:09:40.728Z,102846.47
2018-09-26T04:12:10.672Z,102850.11
2018-09-26T04:14:40.139Z,102860.06
2018-09-26T04:17:09.401Z,102858.56
2018-09-26T04:19:38.948Z,102850.11
2018-09-26T04:22:08.426Z,102839.83
2018-09-26T04:24:38.367Z,102778.58
2018-09-26T04:27:08.154Z,102844.33
2018-09-26T04:29:37.813Z,102845.42
2018-09-26T04:32:08.068Z,102854.00
2018-09-26T04:34:37.617Z,102857.27
2018-09-26T04:37:08.354Z,102854.53
2018-09-26T04:39:38.236Z,102861.13
2018-09-26T04:42:07.781Z,102866.38
2018-09-26T04:44:37.953Z,102863.27
2018-09-26T04:47:07.250Z,102858.53
2018-09-26T04:49:36.515Z,102856.64
2018-09-26T04:52:06.031Z,102858.23
2018-09-26T04:54:35.946Z,102859.32
2018-09-26T04:57:05.486Z,102856.81
2018-09-26T04:59:34.934Z,102859.90
2018-09-26T05:02:04.438Z,102867.52
2018-09-26T05:04:33.733Z,102874.55
2018-09-26T05:07:03.583Z,102874.77
2018-09-26T05:09:33.368Z,102857.56
2018-09-26T05:12:03.483Z,102862.57
2018-09-26T05:14:33.224Z,102866.45
2018-09-26T05:17:03.719Z,102864.66
2018-09-26T05:19:33.982Z,102861.25
2018-09-26T05:22:03.369Z,102858.66
2018-09-26T05:24:33.287Z,102862.66
2018-09-26T05:27:03.577Z,102865.33
2018-09-26T05:29:33.046Z,102864.80
2018-09-26T05:32:03.245Z,102867.39
2018-09-26T05:34:33.166Z,102868.58
2018-09-26T05:37:02.583Z,102849.59
2018-09-26T05:39:32.690Z,102846.34
2018-09-26T05:42:02.247Z,102846.24
2018-09-26T05:44:31.750Z,102844.05
2018-09-26T05:47:01.250Z,102841.34
2018-09-26T05:49:30.735Z,102847.86
2018-09-26T05:52:00.572Z,102839.14
2018-09-26T05:54:30.140Z,102828.22
2018-09-26T05:57:00.338Z,102826.47
2018-09-26T05:59:30.162Z,102824.52
2018-09-26T06:01:59.508Z,102821.38
2018-09-26T06:04:28.996Z,102818.27
2018-09-26T06:06:59.072Z,102826.80
2018-09-26T06:09:29.528Z,102824.77
2018-09-26T06:11:59.380Z,102831.21
2018-09-26T06:14:29.500Z,102843.36
2018-09-26T06:16:58.792Z,102832.77
2018-09-26T06:19:28.265Z,102855.81
2018-09-26T06:21:58.556Z,102850.55
2018-09-26T06:24:27.931Z,102851.46
2018-09-26T06:26:57.632Z,102857.14
2018-09-26T06:29:28.082Z,102849.44
2018-09-26T06:31:58.249Z,102848.54
2018-09-26T06:34:28.115Z,102852.16
2018-09-26T06:36:58.750Z,102852.05
2018-09-26T06:39:28.472Z,102850.36
2018-09-26T06:41:58.727Z,102848.19
2018-09-26T06:44:28.447Z,102857.48
2018-09-26T06:46:58.605Z,102858.28
2018-09-26T06:49:28.334Z,102857.75
2018-09-26T06:51:58.170Z,102853.72
2018-09-26T06:54:28.075Z,102863.23
2018-09-26T06:56:57.371Z,102854.92
2018-09-26T06:59:27.398Z,102854.47
2018-09-26T07:01:57.551Z,102848.34
2018-09-26T07:04:27.795Z,102841.58
2018-09-26T07:06:57.262Z,102847.08
2018-09-26T07:09:26.778Z,102856.11
2018-09-26T07:11:56.042Z,102852.02
2018-09-26T07:14:25.583Z,102841.38
2018-09-26T07:16:55.097Z,102843.17
2018-09-26T07:19:25.216Z,102842.28
2018-09-26T07:21:54.895Z,102845.28
2018-09-26T07:24:24.272Z,102838.39
2018-09-26T07:26:54.356Z,102839.21
2018-09-26T07:29:23.869Z,102841.83
2018-09-26T07:31:53.777Z,102846.79
2018-09-26T07:34:28.306Z,102843.00
2018-09-26T07:36:58.227Z,102841.43
2018-09-26T07:39:27.653Z,102834.33
2018-09-26T07:41:57.880Z,102819.30
2018-09-26T07:44:27.635Z,102818.14
2018-09-26T07:46:57.531Z,102821.78
2018-09-26T07:49:27.250Z,102830.73
2018-09-26T07:51:57.687Z,102832.42
2018-09-26T07:54:27.061Z,102837.11
2018-09-26T07:56:57.238Z,102845.20
2018-09-26T07:59:26.927Z,102840.95
2018-09-26T08:01:56.600Z,102843.65
2018-09-26T08:04:26.784Z,102833.37
2018-09-26T08:06:56.957Z,102835.89
2018-09-26T08:09:26.225Z,102814.88
2018-09-26T08:11:56.423Z,102824.39
2018-09-26T08:14:25.867Z,102841.38
2018-09-26T08:16:56.258Z,102834.67
2018-09-26T08:19:26.035Z,102838.53
2018-09-26T08:21:57.134Z,102836.49
2018-09-26T08:24:26.659Z,102826.06
2018-09-26T08:26:56.238Z,102825.50
2018-09-26T08:29:25.854Z,102828.55
2018-09-26T08:31:56.001Z,102816.59
2018-09-26T08:34:26.044Z,102819.03
2018-09-26T08:36:55.625Z,102808.61
2018-09-26T08:39:25.302Z,102816.66
2018-09-26T08:41:55.022Z,102815.62
2018-09-26T08:44:25.174Z,102816.55
2018-09-26T08:46:54.864Z,102811.20
2018-09-26T08:49:24.380Z,102811.27
2018-09-26T08:51:53.850Z,102807.62
2018-09-26T08:54:23.895Z,102806.98
2018-09-26T08:56:53.287Z,102812.88
2018-09-26T08:59:23.191Z,102818.75
2018-09-26T09:01:52.711Z,102817.67
2018-09-26T09:04:22.887Z,102814.05
2018-09-26T09:06:52.557Z,102805.84
2018-09-26T09:09:22.260Z,102807.30
2018-09-26T09:11:51.967Z,102800.53
2018-09-26T09:14:21.585Z,102795.41
2018-09-26T09:16:51.182Z,102795.35
2018-09-26T09:19:20.416Z,102787.16
2018-09-26T09:21:49.794Z,102786.67
2018-09-26T09:24:19.263Z,102787.56
2018-09-26T09:26:49.242Z,102787.05
2018-09-26T09:29:19.148Z,102784.42
2018-09-26T09:31:48.674Z,102786.34
2018-09-26T09:34:18.148Z,102769.88
2018-09-26T09:36:48.068Z,102767.53
2018-09-26T09:39:17.746Z,102773.52
2018-09-26T09:41:47.469Z,102781.08
2018-09-26T09:44:17.252Z,102769.23
2018-09-26T09:46:47.312Z,102785.80
2018-09-26T09:49:16.774Z,102777.92
2018-09-26T09:51:46.770Z,102775.58
2018-09-26T09:54:16.847Z,102772.63
2018-09-26T09:56:46.335Z,102766.17
2018-09-26T09:59:16.276Z,102773.29
2018-09-26T10:01:45.518Z,102763.59
2018-09-26T10:04:15.448Z,102762.48
2018-09-26T10:06:44.686Z,102758.66
2018-09-26T10:09:14.524Z,102759.03
2018-09-26T10:11:43.978Z,102757.02
2018-09-26T10:14:13.246Z,102756.67
2018-09-26T10:16:42.604Z,102753.54
2018-09-26T10:19:11.868Z,102752.19
2018-09-26T10:21:41.595Z,102756.58
2018-09-26T10:24:11.598Z,102753.79
2018-09-26T10:26:40.829Z,102760.62
2018-09-26T10:29:10.507Z,102761.67
2018-09-26T10:31:40.068Z,102764.27
2018-09-26T10:34:09.759Z,102762.22
2018-09-26T10:36:39.206Z,102766.83
2018-09-26T10:39:09.895Z,102760.14
2018-09-26T10:41:39.875Z,102746.44
2018-09-26T10:44:10.153Z,102756.17
2018-09-26T10:46:39.349Z,102748.17
2018-09-26T10:49:09.324Z,102740.58
2018-09-26T10:51:38.707Z,102746.20
2018-09-26T10:54:08.451Z,102746.20
2018-09-26T10:56:38.104Z,102749.48
2018-09-26T10:59:07.440Z,102750.90
2018-09-26T11:01:36.914Z,102742.31
2018-09-26T11:04:06.503Z,102744.39
2018-09-26T11:06:36.400Z,102740.44
2018-09-26T11:09:08.853Z,102732.34
2018-09-26T11:11:38.630Z,102732.41
2018-09-26T11:14:08.568Z,102733.43
2018-09-26T11:16:38.039Z,102732.09
2018-09-26T11:19:08.001Z,102730.55
2018-09-26T11:21:37.707Z,102727.92
2018-09-26T11:24:07.191Z,102727.50
2018-09-26T11:26:36.421Z,102727.36
2018-09-26T11:29:06.014Z,102724.93
2018-09-26T11:31:35.315Z,102719.45
2018-09-26T11:34:04.814Z,102714.22
2018-09-26T11:36:34.128Z,102713.19
2018-09-26T11:39:04.424Z,102711.66
2018-09-26T11:41:33.951Z,102711.43
2018-09-26T11:44:03.140Z,102705.42
2018-09-26T11:46:32.524Z,102700.34
2018-09-26T11:49:02.723Z,102690.47
2018-09-26T11:51:31.946Z,102694.17
2018-09-26T11:54:02.023Z,102685.80
2018-09-26T11:56:31.714Z,102679.13
2018-09-26T11:59:01.589Z,102672.15
2018-09-26T12:01:30.992Z,102669.41
2018-09-26T12:04:01.008Z,102664.22
2018-09-26T12:06:31.277Z,102667.09
2018-09-26T12:09:01.022Z,102658.39
2018-09-26T12:11:30.614Z,102648.25
2018-09-26T12:14:01.902Z,102647.67
2018-09-26T12:16:32.018Z,102645.51
2018-09-26T12:19:01.423Z,102640.64
2018-09-26T12:21:31.369Z,102632.73
2018-09-26T12:24:00.882Z,102624.97
2018-09-26T12:26:30.967Z,102623.84
2018-09-26T12:29:01.051Z,102623.92
2018-09-26T12:31:30.976Z,102613.70
2018-09-26T12:34:00.298Z,102612.11
2018-09-26T12:36:29.835Z,102616.84
2018-09-26T12:38:59.873Z,102629.87
2018-09-26T12:41:29.662Z,102619.59
2018-09-26T12:43:59.134Z,102630.27
2018-09-26T12:46:28.694Z,102631.84
2018-09-26T12:48:58.165Z,102619.67
2018-09-26T12:51:27.920Z,102619.84
2018-09-26T12:53:58.376Z,102619.36
2018-09-26T12:56:27.900Z,102618.64
2018-09-26T12:58:57.638Z,102618.91
2018-09-26T13:01:27.110Z,102618.23
2018-09-26T13:03:56.887Z,102621.61
2018-09-26T13:06:26.087Z,102620.52
2018-09-26T13:08:55.839Z,102617.97
2018-09-26T13:11:25.671Z,102613.78
2018-09-26T13:13:55.467Z,102609.27
2018-09-26T13:16:25.125Z,102608.02
2018-09-26T13:18:54.892Z,102607.70
2018-09-26T13:21:24.505Z,102601.78
2018-09-26T13:23:54.194Z,102603.91
2018-09-26T13:26:23.769Z,102597.41
2018-09-26T13:28:53.048Z,102600.15
2018-09-26T13:31:22.407Z,102596.23
2018-09-26T13:33:51.898Z,102594.04
2018-09-26T13:36:21.400Z,102585.13
2018-09-26T13:38:50.924Z,102583.27
2018-09-26T13:41:21.195Z,102584.65
2018-09-26T13:43:50.371Z,102579.34
2018-09-26T13:46:19.993Z,102573.41
2018-09-26T13:48:49.120Z,102574.95
2018-09-26T13:51:18.445Z,102575.50
2018-09-26T13:53:47.922Z,102573.20
2018-09-26T13:56:17.754Z,102562.69
2018-09-26T13:58:47.112Z,102569.91
2018-09-26T14:01:16.834Z,102563.11
2018-09-26T14:03:46.135Z,102553.87
2018-09-26T14:06:15.650Z,102552.97
2018-09-26T14:08:46.156Z,102550.77
2018-09-26T14:11:16.298Z,102552.28
2018-09-26T14:13:46.269Z,102544.42
2018-09-26T14:16:16.163Z,102545.13
2018-09-26T14:18:45.643Z,102540.34
2018-09-26T14:21:15.836Z,102534.55
2018-09-26T14:23:45.665Z,102534.91
2018-09-26T14:26:15.103Z,102526.40
2018-09-26T14:28:44.491Z,102518.86
2018-09-26T14:31:14.176Z,102513.30
2018-09-26T14:33:43.559Z,102516.31
2018-09-26T14:36:13.066Z,102508.73
2018-09-26T14:38:42.781Z,102513.73
2018-09-26T14:41:12.275Z,102508.37
2018-09-26T14:43:41.992Z,102502.64
2018-09-26T14:46:11.636Z,102504.66
2018-09-26T14:48:41.207Z,102496.48
2018-09-26T14:51:11.271Z,102501.66
2018-09-26T14:53:41.226Z,102499.48
2018-09-26T14:56:11.000Z,102498.36
2018-09-26T14:58:40.419Z,102494.55
2018-09-26T15:01:09.962Z,102486.80
2018-09-26T15:03:39.607Z,102491.37
2018-09-26T15:06:09.397Z,102483.72
2018-09-26T15:08:38.859Z,102480.03
2018-09-26T15:11:08.791Z,102484.50
2018-09-26T15:13:38.236Z,102479.96
2018-09-26T15:16:08.444Z,102489.02
2018-09-26T15:18:38.290Z,102487.30
2018-09-26T15:21:07.748Z,102479.78
2018-09-26T15:23:37.070Z,102476.00
2018-09-26T15:26:07.261Z,102477.88
2018-09-26T15:28:37.344Z,102479.12
2018-09-26T15:31:06.821Z,102475.80
2018-09-26T15:33:36.954Z,102477.37
2018-09-26T15:36:06.755Z,102472.86
2018-09-26T15:38:36.346Z,102467.52
2018-09-26T15:41:06.483Z,102472.45
2018-09-26T15:43:36.752Z,102468.88
2018-09-26T15:46:07.016Z,102477.09
2018-09-26T15:48:37.342Z,102473.62
2018-09-26T15:51:06.752Z,102472.28
2018-09-26T15:53:36.545Z,102474.10
2018-09-26T15:56:06.216Z,102470.66
2018-09-26T15:58:35.728Z,102480.27
2018-09-26T16:01:04.999Z,102473.25
2018-09-26T16:03:34.466Z,102474.44
2018-09-26T16:06:04.632Z,102469.55
2018-09-26T16:08:34.746Z,102469.76
2018-09-26T16:11:05.060Z,102472.16
2018-09-26T16:13:34.972Z,102469.78
2018-09-26T16:16:04.181Z,102468.80
2018-09-26T16:18:33.531Z,102472.12
2018-09-26T16:21:03.467Z,102466.06
2018-09-26T16:23:32.951Z,102463.52
2018-09-26T16:26:02.483Z,102466.33
2018-09-26T16:28:32.209Z,102468.02
2018-09-26T16:31:01.711Z,102467.54
2018-09-26T16:33:30.984Z,102470.75
2018-09-26T16:36:01.142Z,102470.47
2018-09-26T16:38:31.237Z,102471.80
2018-09-26T16:41:00.862Z,102467.29
2018-09-26T16:43:30.262Z,102466.98
2018-09-26T16:45:59.815Z,102475.09
2018-09-26T16:48:29.245Z,102477.84
2018-09-26T16:50:59.164Z,102472.94
2018-09-26T16:53:29.594Z,102472.30
2018-09-26T16:55:59.686Z,102408.08
2018-09-26T16:58:28.990Z,102473.22
2018-09-26T17:00:58.206Z,102477.17
2018-09-26T17:03:27.628Z,102479.16
2018-09-26T17:05:57.537Z,102475.00
2018-09-26T17:08:27.784Z,102475.22
2018-09-26T17:10:58.152Z,102474.36
2018-09-26T17:13:28.249Z,102474.91
2018-09-26T17:15:57.723Z,102473.58
2018-09-26T17:18:27.622Z,102476.99
2018-09-26T17:20:56.931Z,102479.81
2018-09-26T17:23:26.427Z,102481.91
2018-09-26T17:25:55.959Z,102477.48
2018-09-26T17:28:25.780Z,102475.16
2018-09-26T17:30:55.327Z,102479.45
2018-09-26T17:33:24.914Z,102481.05
2018-09-26T17:35:54.363Z,102485.55
2018-09-26T17:38:24.223Z,102485.20
2018-09-26T17:40:54.005Z,102485.42
2018-09-26T17:43:23.764Z,102481.27
2018-09-26T17:45:53.376Z,102480.44
2018-09-26T17:48:22.721Z,102484.91
2018-09-26T17:50:51.970Z,102488.41
2018-09-26T17:53:21.549Z,102488.74
2018-09-26T17:55:50.741Z,102486.89
2018-09-26T17:58:21.387Z,102488.69
2018-09-26T18:00:50.555Z,102494.12
2018-09-26T18:03:20.652Z,102497.64
2018-09-26T18:05:50.884Z,102500.27
2018-09-26T18:08:20.970Z,102499.16
2018-09-26T18:10:51.037Z,102499.78
2018-09-26T18:13:20.440Z,102502.14
2018-09-26T18:15:50.546Z,102504.67
2018-09-26T18:18:19.759Z,102502.14
2018-09-26T18:20:49.805Z,102510.39
2018-09-26T18:23:19.556Z,102510.44
2018-09-26T18:25:49.203Z,102512.31
2018-09-26T18:28:18.657Z,102513.02
2018-09-26T18:30:48.383Z,102519.34
2018-09-26T18:33:18.154Z,102520.64
2018-09-26T18:35:47.825Z,102524.97
2018-09-26T18:38:17.566Z,102518.80
2018-09-26T18:40:47.109Z,102518.41
2018-09-26T18:43:16.754Z,102520.83
2018-09-26T18:45:47.221Z,102517.78
2018-09-26T18:48:17.263Z,102522.66
2018-09-26T18:50:46.510Z,102522.20
2018-09-26T18:53:16.608Z,102521.16
2018-09-26T18:55:46.238Z,102521.36
2018-09-26T18:58:15.431Z,102519.00
2018-09-26T19:00:45.331Z,102526.69
2018-09-26T19:03:14.800Z,102526.34
2018-09-26T19:05:44.323Z,102522.77
2018-09-26T19:08:13.838Z,102517.67
2018-09-26T19:10:43.587Z,102519.75
2018-09-26T19:13:13.507Z,102516.86
2018-09-26T19:15:43.472Z,102514.52
2018-09-26T19:18:13.299Z,102516.06
2018-09-26T19:20:43.215Z,102524.11
2018-09-26T19:23:13.127Z,102523.14
2018-09-26T19:25:42.971Z,102527.52
2018-09-26T19:28:12.531Z,102521.97
2018-09-26T19:30:42.030Z,102531.55
2018-09-26T19:33:11.554Z,102531.28
2018-09-26T19:35:42.631Z,102537.81
2018-09-26T19:38:12.422Z,102537.45
2018-09-26T19:40:41.760Z,102536.77
2018-09-26T19:43:12.035Z,102533.62
2018-09-26T19:45:41.938Z,102525.83
2018-09-26T19:48:12.421Z,102535.75
2018-09-26T19:50:41.924Z,102530.34
2018-09-26T19:53:11.812Z,102527.25
2018-09-26T19:55:42.019Z,102525.84
2018-09-26T19:58:11.986Z,102534.73
2018-09-26T20:00:41.394Z,102533.70
2018-09-26T20:03:11.685Z,102541.89
2018-09-26T20:05:41.298Z,102540.41
2018-09-26T20:08:11.479Z,102539.75
2018-09-26T20:10:41.005Z,102541.97
2018-09-26T20:13:10.421Z,102538.08
2018-09-26T20:15:40.077Z,102537.05
2018-09-26T20:18:09.792Z,102536.21
2018-09-26T20:20:39.306Z,102531.59
2018-09-26T20:23:09.305Z,102529.03
2018-09-26T20:25:38.716Z,102533.09
2018-09-26T20:28:08.450Z,102537.27
2018-09-26T20:30:38.008Z,102543.02
2018-09-26T20:33:07.510Z,102550.98
2018-09-26T20:35:37.392Z,102548.05
2018-09-26T20:38:07.238Z,102541.92
2018-09-26T20:40:37.031Z,102549.09
2018-09-26T20:43:06.464Z,102545.69
2018-09-26T20:45:36.205Z,102548.53
2018-09-26T20:48:05.956Z,102547.20
2018-09-26T20:50:35.634Z,102550.81
2018-09-26T20:53:05.343Z,102547.01
2018-09-26T20:55:34.844Z,102543.89
2018-09-26T20:58:04.107Z,102543.32
2018-09-26T21:00:34.092Z,102544.94
2018-09-26T21:03:03.746Z,102547.09
2018-09-26T21:05:33.024Z,102550.33
2018-09-26T21:08:03.314Z,102547.50
2018-09-26T21:10:33.120Z,102561.67
2018-09-26T21:13:02.716Z,102557.23
2018-09-26T21:15:32.519Z,102557.16
2018-09-26T21:18:02.124Z,102563.41
2018-09-26T21:20:31.713Z,102554.95
2018-09-26T21:23:01.283Z,102560.91
2018-09-26T21:25:30.930Z,102561.84
2018-09-26T21:28:00.814Z,102561.38
2018-09-26T21:30:30.758Z,102563.75
2018-09-26T21:33:00.510Z,102568.28
2018-09-26T21:35:29.695Z,102553.21
2018-09-26T21:37:58.910Z,102555.73
2018-09-26T21:40:28.109Z,102562.84
2018-09-26T21:42:58.210Z,102563.23
2018-09-26T21:45:27.994Z,102566.66
2018-09-26T21:47:57.520Z,102562.73
2018-09-26T21:50:27.203Z,102557.33
2018-09-26T21:52:57.207Z,102561.41
2018-09-26T21:55:26.651Z,102552.46
2018-09-26T21:57:56.236Z,102555.08
2018-09-26T22:00:26.140Z,102551.05
2018-09-26T22:02:55.650Z,102547.78
2018-09-26T22:05:25.148Z,102550.36
2018-09-26T22:07:54.938Z,102549.66
2018-09-26T22:10:25.535Z,102554.41
2018-09-26T22:12:55.094Z,102554.84
2018-09-26T22:15:25.171Z,102552.78
2018-09-26T22:17:55.288Z,102557.38
2018-09-26T22:20:25.322Z,102567.78
2018-09-26T22:22:55.318Z,102561.03
2018-09-26T22:25:24.616Z,102567.14
2018-09-26T22:27:54.370Z,102561.80
2018-09-26T22:30:23.831Z,102572.36
2018-09-26T22:32:54.416Z,102576.14
2018-09-26T22:35:23.775Z,102571.83
2018-09-26T22:37:53.461Z,102571.03
2018-09-26T22:40:22.850Z,102572.25
2018-09-26T22:42:52.398Z,102579.40
2018-09-26T22:45:23.026Z,102577.77
2018-09-26T22:47:53.460Z,102583.11
2018-09-26T22:50:23.798Z,102581.70
2018-09-26T22:52:54.086Z,102582.49
2018-09-26T22:55:23.760Z,102575.19
2018-09-26T22:57:53.187Z,102574.58
2018-09-26T23:00:23.628Z,102567.53
2018-09-26T23:02:54.084Z,102573.70
2018-09-26T23:05:23.442Z,102564.68
2018-09-26T23:07:53.140Z,102559.86
2018-09-26T23:10:23.589Z,102566.85
2018-09-26T23:12:52.915Z,102562.47
2018-09-26T23:15:22.678Z,102570.16
2018-09-26T23:17:52.205Z,102573.38
2018-09-26T23:20:21.679Z,102572.75
2018-09-26T23:22:51.610Z,102566.95
2018-09-26T23:25:21.758Z,102555.77
2018-09-26T23:27:51.455Z,102550.39
2018-09-26T23:30:20.777Z,102546.94
2018-09-26T23:32:50.231Z,102545.82
2018-09-26T23:35:19.782Z,102535.22
2018-09-26T23:37:49.845Z,102534.80
2018-09-26T23:40:19.445Z,102533.39
2018-09-26T23:42:48.996Z,102523.20
2018-09-26T23:45:18.785Z,102521.31
2018-09-26T23:47:48.360Z,102529.52
2018-09-26T23:50:18.623Z,102528.44
2018-09-26T23:52:48.146Z,102525.92
2018-09-26T23:55:18.040Z,102527.67
2018-09-26T23:57:47.588Z,102530.40
